Terminal Aerodrome Forecast
Issued by NWS

Home | Current Version | Previous Version | Text Only | Print | Product List | Glossary On
Versions: 1 2 3 4 5 6 7 8 9 10 11 12 13 14 15 16
000
FTAK31 PAJN 240200 AAA
TAFAJN
TAF AMD
PAJN 240210Z 2402/2424 29006KT P6SM VCSH FEW030 BKN050 OVC070
     FM240900 VRB04KT P6SM VCSH OVC050
     FM241500 VRB03KT P6SM VCSH BKN025 OVC050
     FM241800 VRB04KT P6SM -RA BKN020 OVC040=

USA.gov is the U.S. government's official web portal to all federal, state and local government web resources and services.